createdAt,value
2017-03-21T00:00:05.564Z,31.45
2017-03-21T00:01:15.879Z,31.56
2017-03-21T00:02:26.494Z,31.46
2017-03-21T00:03:36.823Z,31.56
2017-03-21T00:04:46.826Z,31.46
2017-03-21T00:05:57.137Z,31.37
2017-03-21T00:07:07.134Z,31.37
2017-03-21T00:08:17.700Z,31.45
2017-03-21T00:09:27.998Z,31.54
2017-03-21T00:10:38.308Z,31.37
2017-03-21T00:11:48.618Z,31.56
2017-03-21T00:12:58.920Z,31.45
2017-03-21T00:14:09.473Z,31.37
2017-03-21T00:15:19.776Z,31.45
2017-03-21T00:16:30.078Z,31.45
2017-03-21T00:17:40.384Z,31.45
2017-03-21T00:18:50.691Z,31.56
2017-03-21T00:20:01.252Z,31.35
2017-03-21T00:21:12.454Z,31.37
2017-03-21T00:22:22.755Z,31.46
2017-03-21T00:23:33.067Z,31.27
2017-03-21T00:24:43.066Z,31.37
2017-03-21T00:25:53.618Z,31.27
2017-03-21T00:27:03.909Z,31.37
2017-03-21T00:28:13.911Z,31.27
2017-03-21T00:29:24.209Z,31.37
2017-03-21T00:30:34.512Z,31.45
2017-03-21T00:31:44.750Z,31.27
2017-03-21T00:32:55.054Z,31.35
2017-03-21T00:34:05.405Z,31.46
2017-03-21T00:35:15.430Z,31.35
2017-03-21T00:36:25.735Z,31.35
2017-03-21T00:37:36.290Z,31.35
2017-03-21T00:38:46.608Z,31.35
2017-03-21T00:39:56.910Z,31.37
2017-03-21T00:41:07.216Z,31.35
2017-03-21T00:42:17.524Z,31.35
2017-03-21T00:43:28.084Z,31.37
2017-03-21T00:44:38.403Z,31.35
2017-03-21T00:45:48.391Z,31.46
2017-03-21T00:46:58.698Z,31.54
2017-03-21T00:48:08.993Z,31.26
2017-03-21T00:49:19.546Z,31.45
2017-03-21T00:50:29.866Z,31.45
2017-03-21T00:51:39.859Z,31.45
2017-03-21T00:52:49.873Z,31.45
2017-03-21T00:54:00.180Z,31.37
2017-03-21T00:55:10.728Z,31.45
2017-03-21T00:56:21.026Z,31.54
2017-03-21T00:57:31.309Z,31.45
2017-03-21T00:58:41.299Z,31.54
2017-03-21T00:59:51.649Z,31.54
2017-03-21T01:01:02.243Z,31.45
2017-03-21T01:02:12.551Z,31.45
2017-03-21T01:03:22.542Z,31.35
2017-03-21T01:04:32.852Z,31.46
2017-03-21T01:05:42.851Z,31.45
2017-03-21T01:06:53.463Z,31.54
2017-03-21T01:08:03.774Z,31.45
2017-03-21T01:09:14.085Z,31.45
2017-03-21T01:10:24.387Z,31.45
2017-03-21T01:11:34.368Z,31.37
2017-03-21T01:12:44.612Z,31.46
2017-03-21T01:13:54.919Z,31.45
2017-03-21T01:15:05.216Z,31.35
2017-03-21T01:16:15.535Z,31.46
2017-03-21T01:17:25.831Z,31.45
2017-03-21T01:18:36.430Z,31.46
2017-03-21T01:19:46.737Z,31.35
2017-03-21T01:20:56.739Z,31.45
2017-03-21T01:22:07.049Z,31.45
2017-03-21T01:23:17.345Z,31.45
2017-03-21T01:24:27.910Z,31.56
2017-03-21T01:25:38.209Z,31.35
2017-03-21T01:26:47.901Z,31.54
2017-03-21T01:27:58.209Z,31.45
2017-03-21T01:29:08.533Z,31.45
2017-03-21T01:30:18.781Z,31.35
2017-03-21T01:31:28.761Z,31.27
2017-03-21T01:32:39.063Z,31.35
2017-03-21T01:33:49.369Z,31.46
2017-03-21T01:34:59.668Z,31.35
2017-03-21T01:36:10.217Z,31.45
2017-03-21T01:37:20.525Z,31.45
2017-03-21T01:38:30.823Z,31.54
2017-03-21T01:39:41.123Z,31.45
2017-03-21T01:40:51.431Z,31.35
2017-03-21T01:42:02.000Z,31.35
2017-03-21T01:43:11.997Z,31.35
2017-03-21T01:44:22.310Z,31.35
2017-03-21T01:45:32.307Z,31.35
2017-03-21T01:46:42.825Z,31.56
2017-03-21T01:47:53.422Z,31.54
2017-03-21T01:49:03.768Z,31.54
2017-03-21T01:50:14.071Z,31.46
2017-03-21T01:51:24.387Z,31.45
2017-03-21T01:52:34.372Z,31.45
2017-03-21T01:53:44.986Z,31.45
2017-03-21T01:54:55.292Z,31.46
2017-03-21T01:56:05.593Z,31.54
2017-03-21T01:57:15.882Z,31.35
2017-03-21T01:58:26.480Z,31.45
2017-03-21T01:59:37.037Z,31.35
2017-03-21T02:00:47.433Z,31.45
2017-03-21T02:01:57.748Z,31.35
2017-03-21T02:03:08.070Z,31.37
2017-03-21T02:04:18.380Z,31.26
2017-03-21T02:05:28.934Z,31.26
2017-03-21T02:06:39.226Z,31.26
2017-03-21T02:07:49.219Z,31.26
2017-03-21T02:08:58.906Z,31.45
2017-03-21T02:10:09.220Z,31.45
2017-03-21T02:11:19.777Z,31.45
2017-03-21T02:12:30.077Z,31.45
2017-03-21T02:13:40.382Z,31.54
2017-03-21T02:14:50.702Z,31.54
2017-03-21T02:16:00.704Z,31.54
2017-03-21T02:17:11.258Z,31.54
2017-03-21T02:18:21.581Z,31.35
2017-03-21T02:19:31.578Z,31.35
2017-03-21T02:20:41.881Z,31.35
2017-03-21T02:21:52.186Z,31.35
2017-03-21T02:23:02.741Z,31.45
2017-03-21T02:24:13.057Z,31.45
2017-03-21T02:25:23.366Z,31.54
2017-03-21T02:26:33.663Z,31.45
2017-03-21T02:27:43.988Z,31.45
2017-03-21T02:28:54.638Z,31.54
2017-03-21T02:30:04.634Z,31.35
2017-03-21T02:31:14.621Z,31.35
2017-03-21T02:32:24.289Z,31.54
2017-03-21T02:33:34.295Z,31.54
2017-03-21T02:34:44.851Z,31.45
2017-03-21T02:35:54.848Z,31.54
2017-03-21T02:37:04.829Z,31.45
2017-03-21T02:38:15.130Z,31.54
2017-03-21T02:39:25.428Z,31.35
2017-03-21T02:40:36.048Z,31.45
2017-03-21T02:41:45.728Z,31.45
2017-03-21T02:42:55.720Z,31.54
2017-03-21T02:44:06.138Z,31.35
2017-03-21T02:45:16.445Z,31.35
2017-03-21T02:46:26.731Z,31.35
2017-03-21T02:47:36.717Z,31.35
2017-03-21T02:48:47.044Z,31.35
2017-03-21T02:49:57.351Z,31.45
2017-03-21T02:51:07.668Z,31.45
2017-03-21T02:52:18.215Z,31.26
2017-03-21T02:53:28.204Z,31.35
2017-03-21T02:54:38.525Z,31.45
2017-03-21T02:55:48.445Z,31.35
2017-03-21T02:56:58.749Z,31.45
2017-03-21T02:58:09.306Z,31.35
2017-03-21T02:59:19.610Z,31.35
2017-03-21T03:00:29.921Z,31.26
2017-03-21T03:01:40.223Z,31.16
2017-03-21T03:02:50.529Z,31.35
2017-03-21T03:04:01.188Z,31.35
2017-03-21T03:05:11.496Z,31.35
2017-03-21T03:06:21.793Z,31.26
2017-03-21T03:07:32.087Z,31.26
2017-03-21T03:08:41.765Z,31.16
2017-03-21T03:09:52.323Z,31.16
2017-03-21T03:11:02.627Z,31.26
2017-03-21T03:12:12.922Z,31.06
2017-03-21T03:13:23.223Z,31.16
2017-03-21T03:14:33.525Z,31.06
2017-03-21T03:15:43.766Z,31.26
2017-03-21T03:16:53.750Z,31.16
2017-03-21T03:18:04.056Z,31.16
2017-03-21T03:19:14.055Z,31.26
2017-03-21T03:20:24.368Z,31.26
2017-03-21T03:21:34.915Z,31.26
2017-03-21T03:22:45.210Z,31.16
2017-03-21T03:23:55.569Z,31.26
2017-03-21T03:25:05.565Z,31.16
2017-03-21T03:26:15.879Z,31.26
2017-03-21T03:27:26.483Z,31.16
2017-03-21T03:28:36.782Z,31.16
2017-03-21T03:29:47.090Z,31.06
2017-03-21T03:30:57.082Z,31.06
2017-03-21T03:32:07.373Z,31.06
2017-03-21T03:33:17.916Z,31.06
2017-03-21T03:34:28.221Z,30.97
2017-03-21T03:35:38.515Z,30.97
2017-03-21T03:36:48.807Z,30.97
2017-03-21T03:37:58.803Z,31.16
2017-03-21T03:39:09.412Z,31.06
2017-03-21T03:40:19.719Z,30.98
2017-03-21T03:41:30.009Z,31.06
2017-03-21T03:42:40.321Z,30.97
2017-03-21T03:43:50.330Z,30.97
2017-03-21T03:45:00.954Z,30.97
2017-03-21T03:46:11.264Z,30.77
2017-03-21T03:47:21.268Z,30.88
2017-03-21T03:48:31.572Z,30.97
2017-03-21T03:49:41.886Z,30.97
2017-03-21T03:50:52.177Z,30.87
2017-03-21T03:52:02.464Z,30.77
2017-03-21T03:53:12.452Z,30.77
2017-03-21T03:54:22.758Z,30.87
2017-03-21T03:55:33.063Z,30.97
2017-03-21T03:56:43.622Z,30.87
2017-03-21T03:57:53.918Z,30.97
2017-03-21T03:59:04.256Z,30.87
2017-03-21T04:00:14.245Z,30.87
2017-03-21T04:01:24.546Z,30.77
2017-03-21T04:02:34.839Z,30.77
2017-03-21T04:03:45.150Z,30.77
2017-03-21T04:04:54.852Z,30.68
2017-03-21T04:06:04.851Z,30.77
2017-03-21T04:07:14.840Z,30.49
2017-03-21T04:08:25.140Z,30.58
2017-03-21T04:09:35.133Z,30.77
2017-03-21T04:10:45.107Z,30.87
2017-03-21T04:11:55.402Z,30.87
2017-03-21T04:13:05.718Z,30.68
2017-03-21T04:14:16.277Z,30.58
2017-03-21T04:15:26.591Z,30.87
2017-03-21T04:16:36.593Z,30.68
2017-03-21T04:17:46.899Z,30.49
2017-03-21T04:18:57.221Z,30.58
2017-03-21T04:20:07.507Z,30.6
2017-03-21T04:21:17.802Z,30.87
2017-03-21T04:22:28.134Z,30.49
2017-03-21T04:23:38.435Z,30.68
2017-03-21T04:24:48.445Z,30.58
2017-03-21T04:25:59.039Z,30.77
2017-03-21T04:27:09.338Z,30.68
2017-03-21T04:28:19.642Z,30.77
2017-03-21T04:29:29.329Z,30.68
2017-03-21T04:30:38.996Z,30.58
2017-03-21T04:31:49.535Z,30.68
2017-03-21T04:32:59.847Z,30.49
2017-03-21T04:34:10.167Z,30.58
2017-03-21T04:35:20.477Z,30.58
2017-03-21T04:36:30.768Z,30.58
2017-03-21T04:37:41.378Z,30.68
2017-03-21T04:38:51.693Z,30.68
2017-03-21T04:40:02.006Z,30.77
2017-03-21T04:41:12.305Z,30.49
2017-03-21T04:42:22.604Z,30.49
2017-03-21T04:43:33.220Z,30.49
2017-03-21T04:44:43.533Z,30.58
2017-03-21T04:45:53.213Z,30.58
2017-03-21T04:47:03.496Z,30.39
2017-03-21T04:48:13.796Z,30.31
2017-03-21T04:49:24.404Z,30.39
2017-03-21T04:50:34.703Z,30.49
2017-03-21T04:51:44.697Z,30.49
2017-03-21T04:52:54.683Z,30.29
2017-03-21T04:54:04.991Z,30.29
2017-03-21T04:55:15.554Z,30.39
2017-03-21T04:56:25.845Z,30.39
2017-03-21T04:57:36.141Z,30.39
2017-03-21T04:58:46.148Z,30.4
2017-03-21T04:59:56.465Z,30.39
2017-03-21T05:01:07.021Z,30.39
2017-03-21T05:02:17.000Z,30.29
2017-03-21T05:03:27.297Z,30.39
2017-03-21T05:04:37.303Z,30.39
2017-03-21T05:05:47.612Z,30.29
2017-03-21T05:06:58.208Z,30.39
2017-03-21T05:08:08.513Z,29.91
2017-03-21T05:09:18.820Z,30.29
2017-03-21T05:10:28.809Z,30.02
2017-03-21T05:11:38.797Z,29.83
2017-03-21T05:12:48.782Z,29.72
2017-03-21T05:13:59.087Z,29.62
2017-03-21T05:15:09.398Z,29.72
2017-03-21T05:16:19.693Z,29.93
2017-03-21T05:17:29.993Z,29.62
2017-03-21T05:18:40.544Z,29.62
2017-03-21T05:19:50.544Z,29.62
2017-03-21T05:21:00.844Z,29.81
2017-03-21T05:22:11.143Z,29.62
2017-03-21T05:23:21.133Z,29.43
2017-03-21T05:24:31.420Z,29.43
2017-03-21T05:25:41.709Z,29.24
2017-03-21T05:26:51.740Z,29.24
2017-03-21T05:28:01.721Z,29.06
2017-03-21T05:29:12.069Z,28.96
2017-03-21T05:30:22.640Z,28.96
2017-03-21T05:31:32.937Z,29.06
2017-03-21T05:32:43.232Z,29.06
2017-03-21T05:33:53.229Z,29.06
2017-03-21T05:35:03.530Z,29.35
2017-03-21T05:36:13.766Z,29.54
2017-03-21T05:37:24.064Z,29.24
2017-03-21T05:38:34.064Z,28.96
2017-03-21T05:39:44.372Z,28.96
2017-03-21T05:40:54.378Z,28.67
2017-03-21T05:42:04.353Z,28.58
2017-03-21T05:43:14.342Z,28.58
2017-03-21T05:44:24.647Z,28.58
2017-03-21T05:45:34.951Z,28.58
2017-03-21T05:46:44.637Z,28.58
2017-03-21T05:47:54.874Z,28.48
2017-03-21T05:49:05.197Z,28.58
2017-03-21T05:50:15.193Z,28.58
2017-03-21T05:51:25.181Z,28.48
2017-03-21T05:52:35.484Z,27.91
2017-03-21T05:53:46.038Z,28
2017-03-21T05:54:56.343Z,28
2017-03-21T05:56:06.653Z,28
2017-03-21T05:57:16.634Z,28
2017-03-21T05:58:26.957Z,28.29
2017-03-21T05:59:37.507Z,28.48
2017-03-21T06:00:47.489Z,28.58
2017-03-21T06:01:57.792Z,28.48
2017-03-21T06:03:08.103Z,28.67
2017-03-21T06:04:18.105Z,28.58
2017-03-21T06:05:28.726Z,28.29
2017-03-21T06:06:38.742Z,28.09
2017-03-21T06:07:49.063Z,28.19
2017-03-21T06:08:59.367Z,28.19
2017-03-21T06:10:09.372Z,28.09
2017-03-21T06:11:19.940Z,28.19
2017-03-21T06:12:29.942Z,28.29
2017-03-21T06:13:40.247Z,28.29
2017-03-21T06:14:50.615Z,28.29
2017-03-21T06:16:00.921Z,28.29
2017-03-21T06:17:11.174Z,28.19
2017-03-21T06:18:21.485Z,28.19
2017-03-21T06:19:31.799Z,28.29
2017-03-21T06:20:42.105Z,28.19
2017-03-21T06:21:52.411Z,28.38
2017-03-21T06:23:02.647Z,28.09
2017-03-21T06:24:12.929Z,28.09
2017-03-21T06:25:22.919Z,28.19
2017-03-21T06:26:32.899Z,28.29
2017-03-21T06:27:42.900Z,28.19
2017-03-21T06:28:53.149Z,28.19
2017-03-21T06:30:03.140Z,28.19
2017-03-21T06:31:13.446Z,28.19
2017-03-21T06:32:23.760Z,28.29
2017-03-21T06:33:34.061Z,28.09
2017-03-21T06:34:44.681Z,28.19
2017-03-21T06:35:54.665Z,28.29
2017-03-21T06:37:04.965Z,28.29
2017-03-21T06:38:15.264Z,28.19
2017-03-21T06:39:25.581Z,28.19
2017-03-21T06:40:36.162Z,28.29
2017-03-21T06:41:46.482Z,28.29
2017-03-21T06:42:56.460Z,27.92
2017-03-21T06:44:06.461Z,27.81
2017-03-21T06:45:16.770Z,27.91
2017-03-21T06:46:27.332Z,27.62
2017-03-21T06:47:37.629Z,27.61
2017-03-21T06:48:47.939Z,27.15
2017-03-21T06:49:58.259Z,27.53
2017-03-21T06:51:07.961Z,27.24
2017-03-21T06:52:18.516Z,27.15
2017-03-21T06:53:28.518Z,27.24
2017-03-21T06:54:38.838Z,27.15
2017-03-21T06:55:49.135Z,27.15
2017-03-21T06:56:59.434Z,27.05
2017-03-21T06:58:10.000Z,27.24
2017-03-21T06:59:20.305Z,27.53
2017-03-21T07:00:30.621Z,27.34
2017-03-21T07:01:40.924Z,27.34
2017-03-21T07:02:51.293Z,27.34
2017-03-21T07:04:01.888Z,27.24
2017-03-21T07:05:12.241Z,27.15
2017-03-21T07:06:22.540Z,27.34
2017-03-21T07:07:32.543Z,27.53
2017-03-21T07:08:42.876Z,27.05
2017-03-21T07:09:53.517Z,27.24
2017-03-21T07:11:03.540Z,27.15
2017-03-21T07:12:13.865Z,27.53
2017-03-21T07:13:24.179Z,27.44
2017-03-21T07:14:34.521Z,27.34
2017-03-21T07:15:44.810Z,27.44
2017-03-21T07:16:54.509Z,27.53
2017-03-21T07:18:04.867Z,27.44
2017-03-21T07:19:15.191Z,27.34
2017-03-21T07:20:25.814Z,27.62
2017-03-21T07:21:36.377Z,27.53
2017-03-21T07:22:46.430Z,27.82
2017-03-21T07:23:56.783Z,28.2
2017-03-21T07:25:06.828Z,28.19
2017-03-21T07:26:16.820Z,28.59
2017-03-21T07:27:26.943Z,29.06
2017-03-21T07:28:36.925Z,29.35
2017-03-21T07:29:46.935Z,29.46
2017-03-21T07:30:56.947Z,29.46
2017-03-21T07:32:07.273Z,29.44
2017-03-21T07:33:17.885Z,29.83
2017-03-21T07:34:28.188Z,30.11
2017-03-21T07:35:38.518Z,30.32
2017-03-21T07:36:48.825Z,30.52
2017-03-21T07:37:59.145Z,30.5
2017-03-21T07:39:09.760Z,30.8
2017-03-21T07:40:20.066Z,30.88
2017-03-21T07:41:30.371Z,30.79
2017-03-21T07:42:40.359Z,30.88
2017-03-21T07:43:50.681Z,31.08
2017-03-21T07:45:00.700Z,31.08
2017-03-21T07:46:11.039Z,31.46
2017-03-21T07:47:21.370Z,31.46
2017-03-21T07:48:31.389Z,31.65
2017-03-21T07:49:41.715Z,31.75
2017-03-21T07:50:52.004Z,31.85
2017-03-21T07:52:02.333Z,31.87
2017-03-21T07:53:12.025Z,31.77
2017-03-21T07:54:22.359Z,31.95
2017-03-21T07:55:32.689Z,31.77
2017-03-21T07:56:43.302Z,31.87
2017-03-21T07:57:53.329Z,31.57
2017-03-21T07:59:03.679Z,31.57
2017-03-21T08:00:14.195Z,31.87
2017-03-21T08:01:24.553Z,31.67
2017-03-21T08:02:35.180Z,31.57
2017-03-21T08:03:45.508Z,31.67
2017-03-21T08:04:55.824Z,31.57
2017-03-21T08:06:06.150Z,31.67
2017-03-21T08:07:16.465Z,31.67
2017-03-21T08:08:26.404Z,31.57
2017-03-21T08:09:36.427Z,31.77
2017-03-21T08:10:46.787Z,31.57
2017-03-21T08:11:57.126Z,31.48
2017-03-21T08:13:07.481Z,31.48
2017-03-21T08:14:18.064Z,31.38
2017-03-21T08:15:28.047Z,31.38
2017-03-21T08:16:38.365Z,31.38
2017-03-21T08:17:48.685Z,31.57
2017-03-21T08:18:59.225Z,31.29
2017-03-21T08:20:09.808Z,31.38
2017-03-21T08:21:19.904Z,31.48
2017-03-21T08:22:30.232Z,31.48
2017-03-21T08:23:40.566Z,31.57
2017-03-21T08:24:50.590Z,31.67
2017-03-21T08:26:00.545Z,31.57
2017-03-21T08:27:10.921Z,31.57
2017-03-21T08:28:21.283Z,31.29
2017-03-21T08:29:31.610Z,31.48
2017-03-21T08:30:41.612Z,31.48
2017-03-21T08:31:52.236Z,31.38
2017-03-21T08:33:02.597Z,31.21
2017-03-21T08:34:12.917Z,31.21
2017-03-21T08:35:23.257Z,31.11
2017-03-21T08:36:33.628Z,31.09
2017-03-21T08:37:44.271Z,31.01
2017-03-21T08:38:54.583Z,30.91
2017-03-21T08:40:04.928Z,30.82
2017-03-21T08:41:15.305Z,30.82
2017-03-21T08:42:25.727Z,31.01
2017-03-21T08:43:36.001Z,30.82
2017-03-21T08:44:46.012Z,31.01
2017-03-21T08:45:56.320Z,30.73
2017-03-21T08:47:06.652Z,30.91
2017-03-21T08:48:16.992Z,30.82
2017-03-21T08:49:27.764Z,30.82
2017-03-21T08:50:38.105Z,31.01
2017-03-21T08:51:48.451Z,31.01
2017-03-21T08:52:58.790Z,31.01
2017-03-21T08:54:09.136Z,31.01
2017-03-21T08:55:19.740Z,30.63
2017-03-21T08:56:30.063Z,30.73
2017-03-21T08:57:40.397Z,30.73
2017-03-21T08:58:50.711Z,30.53
2017-03-21T09:00:00.932Z,30.82
2017-03-21T09:01:11.565Z,30.73
2017-03-21T09:02:21.563Z,30.82
2017-03-21T09:03:31.596Z,30.73
2017-03-21T09:04:41.894Z,30.73
2017-03-21T09:05:52.201Z,30.73
2017-03-21T09:07:02.801Z,30.53
2017-03-21T09:08:12.794Z,30.63
2017-03-21T09:09:22.801Z,30.43
2017-03-21T09:10:32.841Z,29.95
2017-03-21T09:11:43.144Z,30.15
2017-03-21T09:12:53.702Z,30.43
2017-03-21T09:14:04.037Z,30.15
2017-03-21T09:15:14.345Z,30.15
2017-03-21T09:16:24.684Z,30.05
2017-03-21T09:17:34.995Z,30.05
2017-03-21T09:18:44.952Z,29.95
2017-03-21T09:19:55.273Z,30.15
2017-03-21T09:21:05.616Z,30.05
2017-03-21T09:22:15.948Z,30.05
2017-03-21T09:23:26.290Z,29.95
2017-03-21T09:24:36.592Z,29.95
2017-03-21T09:25:46.921Z,30.05
2017-03-21T09:26:56.925Z,29.95
2017-03-21T09:28:07.288Z,29.86
2017-03-21T09:29:17.303Z,29.76
2017-03-21T09:30:27.935Z,29.95
2017-03-21T09:31:38.245Z,29.95
2017-03-21T09:32:48.562Z,29.57
2017-03-21T09:33:58.872Z,29.28
2017-03-21T09:35:09.188Z,29.47
2017-03-21T09:36:19.452Z,28.89
2017-03-21T09:37:29.453Z,28.41
2017-03-21T09:38:40.016Z,27.83
2017-03-21T09:39:50.042Z,28.31
2017-03-21T09:41:00.393Z,27.35
2017-03-21T09:42:10.948Z,27.06
2017-03-21T09:43:21.276Z,27.45
2017-03-21T09:44:31.522Z,26.97
2017-03-21T09:45:41.881Z,26.78
2017-03-21T09:46:52.220Z,26.97
2017-03-21T09:48:02.771Z,26.69
2017-03-21T09:49:12.788Z,26.59
2017-03-21T09:50:23.174Z,26.4
2017-03-21T09:51:33.497Z,26.39
2017-03-21T09:52:43.794Z,26.59
2017-03-21T09:53:54.364Z,26.39
2017-03-21T09:55:04.370Z,26.58
2017-03-21T09:56:14.355Z,26.39
2017-03-21T09:57:24.349Z,26.29
2017-03-21T09:58:34.662Z,26.39
2017-03-21T09:59:44.972Z,26.48
2017-03-21T10:00:54.971Z,26.2
2017-03-21T10:02:05.281Z,26.39
2017-03-21T10:03:15.644Z,26.4
2017-03-21T10:04:25.951Z,26.59
2017-03-21T10:05:36.573Z,26.48
2017-03-21T10:06:46.272Z,26.69
2017-03-21T10:07:56.282Z,26.89
2017-03-21T10:09:06.298Z,26.89
2017-03-21T10:10:16.620Z,26.79
2017-03-21T10:11:26.912Z,26.79
2017-03-21T10:12:37.161Z,26.59
2017-03-21T10:13:47.701Z,26.59
2017-03-21T10:14:58.063Z,26.98
2017-03-21T10:16:08.378Z,26.78
2017-03-21T10:17:18.932Z,26.87
2017-03-21T10:18:29.261Z,26.48
2017-03-21T10:19:39.587Z,26.31
2017-03-21T10:20:49.910Z,26.5
2017-03-21T10:21:59.913Z,26.31
2017-03-21T10:23:10.185Z,26.31
2017-03-21T10:24:20.173Z,26.2
2017-03-21T10:25:30.166Z,26.21
2017-03-21T10:26:40.464Z,26.31
2017-03-21T10:27:50.777Z,26.11
2017-03-21T10:29:01.356Z,26.59
2017-03-21T10:30:11.359Z,26.87
2017-03-21T10:31:21.691Z,26.69
2017-03-21T10:32:31.691Z,26.31
2017-03-21T10:33:41.685Z,26.29
2017-03-21T10:34:52.256Z,26.4
2017-03-21T10:36:02.579Z,26.4
2017-03-21T10:37:12.630Z,26.87
2017-03-21T10:38:22.635Z,26.39
2017-03-21T10:39:32.623Z,26.29
2017-03-21T10:40:43.248Z,26.48
2017-03-21T10:41:53.552Z,26.97
2017-03-21T10:43:03.859Z,26.68
2017-03-21T10:44:14.178Z,26.78
2017-03-21T10:45:24.173Z,26.68
2017-03-21T10:46:34.786Z,26.48
2017-03-21T10:47:45.097Z,26.39
2017-03-21T10:48:55.082Z,26.1
2017-03-21T10:50:04.748Z,26
2017-03-21T10:51:14.753Z,26.69
2017-03-21T10:52:25.385Z,26
2017-03-21T10:53:35.687Z,25.73
2017-03-21T10:54:46.012Z,26.2
2017-03-21T10:55:56.047Z,26.31
2017-03-21T10:57:06.383Z,25.71
2017-03-21T10:58:16.953Z,26.2
2017-03-21T10:59:27.280Z,25.71
2017-03-21T11:00:37.609Z,25.81
2017-03-21T11:01:47.677Z,25.71
2017-03-21T11:02:57.989Z,25.43
2017-03-21T11:04:08.554Z,25.62
2017-03-21T11:05:18.889Z,25.71
2017-03-21T11:06:29.216Z,25.92
2017-03-21T11:07:38.923Z,25.91
2017-03-21T11:08:49.242Z,26
2017-03-21T11:09:59.797Z,26.2
2017-03-21T11:11:09.822Z,25.71
2017-03-21T11:12:20.150Z,26.1
2017-03-21T11:13:30.153Z,26.29
2017-03-21T11:14:40.163Z,26.1
2017-03-21T11:15:50.796Z,26.2
2017-03-21T11:17:00.813Z,26.2
2017-03-21T11:18:11.141Z,26.1
2017-03-21T11:19:21.889Z,25.91
2017-03-21T11:20:32.215Z,26.1
2017-03-21T11:21:42.556Z,26.2
2017-03-21T11:22:52.674Z,26.1
2017-03-21T11:24:03.002Z,25.71
2017-03-21T11:25:13.032Z,25.91
2017-03-21T11:26:23.359Z,25.81
2017-03-21T11:27:33.619Z,25.92
2017-03-21T11:28:43.935Z,26.02
2017-03-21T11:29:53.928Z,25.92
2017-03-21T11:31:03.932Z,25.63
2017-03-21T11:32:13.948Z,25.91
2017-03-21T11:33:24.247Z,26.29
2017-03-21T11:34:34.580Z,26.2
2017-03-21T11:35:44.582Z,26.31
2017-03-21T11:36:54.909Z,26.59
2017-03-21T11:38:05.205Z,26.69
2017-03-21T11:39:15.776Z,26.5
2017-03-21T11:40:26.092Z,26.5
2017-03-21T11:41:36.403Z,26.59
2017-03-21T11:42:46.719Z,26.79
2017-03-21T11:43:57.026Z,26.69
2017-03-21T11:45:07.644Z,26.98
2017-03-21T11:46:17.675Z,27.17
2017-03-21T11:47:28.022Z,27.27
2017-03-21T11:48:38.335Z,27.17
2017-03-21T11:49:48.368Z,27.27
2017-03-21T11:50:58.994Z,27.27
2017-03-21T11:52:08.999Z,27.55
2017-03-21T11:53:19.007Z,27.35
2017-03-21T11:54:29.331Z,27.45
2017-03-21T11:55:39.683Z,27.26
2017-03-21T11:56:50.252Z,27.26
2017-03-21T11:58:00.573Z,27.16
2017-03-21T11:59:10.884Z,27.16
2017-03-21T12:00:21.199Z,27.45
2017-03-21T12:01:31.525Z,27.46
2017-03-21T12:02:42.099Z,27.46
2017-03-21T12:03:52.437Z,27.46
2017-03-21T12:05:02.453Z,27.66
2017-03-21T12:06:12.761Z,28.04
2017-03-21T12:07:23.091Z,27.75
2017-03-21T12:08:33.666Z,27.94
2017-03-21T12:09:43.664Z,28.04
2017-03-21T12:10:53.653Z,27.94
2017-03-21T12:12:03.954Z,28.23
2017-03-21T12:13:14.275Z,28.14
2017-03-21T12:14:24.517Z,28.33
2017-03-21T12:15:34.841Z,28.14
2017-03-21T12:16:45.134Z,28.33
2017-03-21T12:17:55.436Z,28.23
2017-03-21T12:19:05.459Z,28.33
2017-03-21T12:20:16.021Z,28.23
2017-03-21T12:21:26.342Z,28.14
2017-03-21T12:22:36.661Z,28.33
2017-03-21T12:23:46.670Z,28.33
2017-03-21T12:24:56.975Z,28.14
2017-03-21T12:26:07.539Z,28.22
2017-03-21T12:27:17.849Z,28.31
2017-03-21T12:28:28.166Z,28.31
2017-03-21T12:29:38.474Z,28.14
2017-03-21T12:30:48.792Z,28.33
2017-03-21T12:31:59.356Z,28.33
2017-03-21T12:33:09.699Z,28.23
2017-03-21T12:34:19.715Z,28.23
2017-03-21T12:35:30.105Z,28.22
2017-03-21T12:36:40.523Z,28.13
2017-03-21T12:37:51.371Z,28.14
2017-03-21T12:39:01.704Z,28.14
2017-03-21T12:40:12.069Z,28.22
2017-03-21T12:41:22.432Z,28.03
2017-03-21T12:42:32.747Z,28.13
2017-03-21T12:43:43.378Z,28.04
2017-03-21T12:44:53.765Z,27.94
2017-03-21T12:46:04.080Z,28.03
2017-03-21T12:47:14.378Z,28.52
2017-03-21T12:48:24.387Z,28.04
2017-03-21T12:49:34.357Z,28.42
2017-03-21T12:50:44.706Z,28.04
2017-03-21T12:51:54.887Z,28.14
2017-03-21T12:53:05.202Z,28.72
2017-03-21T12:54:15.519Z,28.72
2017-03-21T12:55:26.105Z,28.72
2017-03-21T12:56:36.421Z,28.62
2017-03-21T12:57:46.754Z,27.93
2017-03-21T12:58:57.123Z,28.14
2017-03-21T13:00:07.129Z,28.14
2017-03-21T13:01:17.691Z,28.04
2017-03-21T13:02:28.023Z,28.42
2017-03-21T13:03:38.026Z,28.52
2017-03-21T13:04:48.354Z,28.72
2017-03-21T13:05:58.700Z,28.52
2017-03-21T13:07:09.255Z,28.72
2017-03-21T13:08:19.565Z,28.81
2017-03-21T13:09:29.583Z,28.81
2017-03-21T13:10:39.897Z,28.62
2017-03-21T13:11:50.206Z,28.62
2017-03-21T13:13:00.773Z,28.62
2017-03-21T13:14:11.113Z,28.62
2017-03-21T13:15:21.124Z,28.62
2017-03-21T13:16:31.439Z,28.62
2017-03-21T13:17:41.457Z,28.52
2017-03-21T13:18:51.765Z,28.52
2017-03-21T13:20:02.105Z,28.62
2017-03-21T13:21:12.114Z,28.62
2017-03-21T13:22:22.412Z,28.7
2017-03-21T13:23:32.761Z,28.61
2017-03-21T13:24:43.350Z,28.7
2017-03-21T13:25:53.352Z,28.72
2017-03-21T13:27:03.676Z,28.7
2017-03-21T13:28:13.985Z,28.91
2017-03-21T13:29:24.299Z,29
2017-03-21T13:30:34.850Z,28.91
2017-03-21T13:31:44.881Z,28.8
2017-03-21T13:32:55.205Z,28.8
2017-03-21T13:34:05.542Z,28.81
2017-03-21T13:35:15.561Z,28.99
2017-03-21T13:36:25.968Z,28.8
2017-03-21T13:37:36.277Z,28.99
2017-03-21T13:38:46.278Z,29.08
2017-03-21T13:39:56.285Z,29.1
2017-03-21T13:41:05.986Z,29.38
2017-03-21T13:42:16.586Z,29.28
2017-03-21T13:43:26.895Z,29.28
2017-03-21T13:44:37.212Z,29.28
2017-03-21T13:45:47.231Z,29.18
2017-03-21T13:46:57.266Z,29.38
2017-03-21T13:48:07.820Z,29.47
2017-03-21T13:49:16.878Z,28.99
2017-03-21T13:50:27.220Z,29.2
2017-03-21T13:51:37.556Z,29.2
2017-03-21T13:52:47.870Z,29.47
2017-03-21T13:53:58.332Z,29.58
2017-03-21T13:55:08.687Z,29.38
2017-03-21T13:56:19.021Z,29.28
2017-03-21T13:57:29.390Z,29.66
2017-03-21T13:58:39.507Z,29.58
2017-03-21T13:59:49.756Z,29.18
2017-03-21T14:01:00.091Z,29
2017-03-21T14:02:10.098Z,29.1
2017-03-21T14:03:20.164Z,29.58
2017-03-21T14:04:30.682Z,29.18
2017-03-21T14:05:41.266Z,29.29
2017-03-21T14:06:51.589Z,29.2
2017-03-21T14:08:01.919Z,29.39
2017-03-21T14:09:12.229Z,29.57
2017-03-21T14:10:22.232Z,29.58
2017-03-21T14:11:32.521Z,29.28
2017-03-21T14:12:42.854Z,29.49
2017-03-21T14:13:53.173Z,29.28
2017-03-21T14:15:03.503Z,29.58
2017-03-21T14:16:13.845Z,29.08
2017-03-21T14:17:24.456Z,29.2
2017-03-21T14:18:34.779Z,29.08
2017-03-21T14:19:45.102Z,29
2017-03-21T14:20:55.404Z,29.2
2017-03-21T14:22:05.732Z,29.2
2017-03-21T14:23:16.307Z,29.1
2017-03-21T14:24:26.325Z,29.08
2017-03-21T14:25:36.342Z,29.08
2017-03-21T14:26:46.664Z,29.18
2017-03-21T14:27:56.984Z,29.18
2017-03-21T14:29:07.809Z,29.38
2017-03-21T14:30:18.162Z,29.38
2017-03-21T14:31:28.495Z,29.28
2017-03-21T14:32:38.837Z,29.28
2017-03-21T14:33:49.151Z,29.58
2017-03-21T14:34:59.718Z,29.47
2017-03-21T14:36:10.043Z,29.58
2017-03-21T14:37:20.056Z,29.1
2017-03-21T14:38:30.379Z,29.1
2017-03-21T14:39:40.741Z,29.2
2017-03-21T14:40:51.325Z,28.99
2017-03-21T14:42:01.631Z,29
2017-03-21T14:43:11.957Z,28.99
2017-03-21T14:44:21.634Z,28.99
2017-03-21T14:45:31.630Z,28.8
2017-03-21T14:46:41.554Z,28.99
2017-03-21T14:47:51.852Z,28.91
2017-03-21T14:49:02.210Z,28.8
2017-03-21T14:50:11.997Z,28.89
2017-03-21T14:51:22.299Z,28.7
2017-03-21T14:52:32.914Z,28.81
2017-03-21T14:53:42.930Z,28.61
2017-03-21T14:54:53.269Z,28.8
2017-03-21T14:56:03.586Z,28.8
2017-03-21T14:57:13.919Z,28.61
2017-03-21T14:58:24.490Z,28.61
2017-03-21T14:59:34.800Z,28.51
2017-03-21T15:00:45.127Z,28.03
2017-03-21T15:01:55.143Z,28.22
2017-03-21T15:03:05.463Z,28.13
2017-03-21T15:04:15.449Z,28.13
2017-03-21T15:05:25.780Z,28.13
2017-03-21T15:06:36.160Z,28.22
2017-03-21T15:07:46.155Z,28.13